Terminal Aerodrome Forecast
Issued by NWS

Home | Current Version | Previous Version | Graphics & Text | Print | Product List | Glossary On
Versions: 1 2 3 4 5 6 7 8 9 10 11 12 13 14 15 16 17 18 19
000
FTUS43 KGRB 251100
TAFAUW
TAF
KAUW 251125Z 2512/2612 VRB03KT 2SM -SN OVC012
     FM251400 25007KT P6SM OVC019
     FM251900 25018G29KT P6SM BKN010
     FM260100 29010G17KT P6SM BKN070=

USA.gov is the U.S. government's official web portal to all federal, state and local government web resources and services.